Log in Register

Login to your account

Username *
Password *
Remember Me

Create an account

Fields marked with an asterisk (*) are required.
Name *
Username *
Password *
Verify password *
Email *
Verify email *

Nous contacter

 Téléphone : +33 (0)4 79 54 41 81

Coordonnées détaillées et accès : cliquez ici

 
LFLB °C
    Ferienhaus Ostsee
[source: ADDS]
METAR
LFLB 211000Z AUTO 07006KT 9999 4800 FEW026 OVC098 15/05 Q1018 NOSIG =
TAF LFLB 210500Z 2106/2206 VRB02KT CAVOK BECMG 2109/2111 02007KT BECMG 2117/2119 VRB02KT
TAF
TAF LFLB 210500Z 2106/2206 VRB02KT CAVOK BECMG 2109/2111 02007KT BECMG 2117/2119 VRB02KT =
SR / SS: 04:40 / 18:29 UTC (Lever/Coucher du soleil le 2019-04-21)
JSN Boot template designed by JoomlaShine.com